createdAt,value
2023-05-08T00:00:59.247Z,102169.75
2023-05-08T00:04:02.904Z,102164.66
2023-05-08T00:07:06.147Z,102162.19
2023-05-08T00:10:11.229Z,102158.00
2023-05-08T00:13:15.954Z,102157.25
2023-05-08T00:16:19.767Z,102154.94
2023-05-08T00:19:22.906Z,102150.81
2023-05-08T00:22:28.628Z,102150.00
2023-05-08T00:25:32.060Z,102168.28
2023-05-08T00:28:36.627Z,102176.28
2023-05-08T00:31:39.760Z,102172.91
2023-05-08T00:34:42.941Z,102167.75
2023-05-08T00:37:47.193Z,102168.78
2023-05-08T00:40:50.294Z,102174.19
2023-05-08T00:43:54.699Z,102178.72
2023-05-08T00:46:58.224Z,102177.97
2023-05-08T00:50:02.282Z,102187.56
2023-05-08T00:53:06.362Z,102179.88
2023-05-08T00:56:13.747Z,102180.13
2023-05-08T00:59:18.663Z,102180.22
2023-05-08T01:02:21.889Z,102182.91
2023-05-08T01:05:25.050Z,102179.56
2023-05-08T01:08:28.124Z,102175.28
2023-05-08T01:11:47.147Z,102181.38
2023-05-08T01:15:10.694Z,102177.91
2023-05-08T01:18:18.829Z,102181.59
2023-05-08T01:21:33.312Z,102179.94
2023-05-08T01:25:23.779Z,102178.22
2023-05-08T01:29:12.995Z,102181.78
2023-05-08T01:32:21.880Z,102181.91
2023-05-08T01:35:32.948Z,102185.47
2023-05-08T01:38:47.746Z,102182.03
2023-05-08T01:42:01.004Z,102178.75
2023-05-08T01:45:13.793Z,102195.31
2023-05-08T01:48:25.643Z,102190.06
2023-05-08T01:51:41.912Z,102192.91
2023-05-08T01:54:53.858Z,102195.50
2023-05-08T01:57:59.225Z,102193.94
2023-05-08T02:01:03.524Z,102194.13
2023-05-08T02:04:09.607Z,102193.25
2023-05-08T02:07:13.815Z,102193.22
2023-05-08T02:10:18.447Z,102198.56
2023-05-08T02:13:23.604Z,102197.88
2023-05-08T02:16:28.265Z,102196.25
2023-05-08T02:19:33.837Z,102195.47
2023-05-08T02:22:38.209Z,102194.69
2023-05-08T02:25:42.548Z,102193.16
2023-05-08T02:28:47.144Z,102197.47
2023-05-08T02:31:51.588Z,102190.72
2023-05-08T02:35:03.136Z,102192.50
2023-05-08T02:38:10.774Z,102183.97
2023-05-08T02:41:17.865Z,102183.25
2023-05-08T02:44:21.138Z,102191.97
2023-05-08T02:47:30.921Z,102185.19
2023-05-08T02:50:43.060Z,102180.00
2023-05-08T02:53:52.798Z,102181.88
2023-05-08T02:57:01.322Z,102187.19
2023-05-08T03:00:13.802Z,102193.28
2023-05-08T03:03:24.275Z,102189.88
2023-05-08T03:06:36.813Z,102198.59
2023-05-08T03:09:46.819Z,102195.22
2023-05-08T03:12:55.416Z,102191.81
2023-05-08T03:16:03.140Z,102187.56
2023-05-08T03:19:13.943Z,102183.28
2023-05-08T03:22:21.461Z,102186.88
2023-05-08T03:25:25.824Z,102190.47
2023-05-08T03:28:30.581Z,102194.75
2023-05-08T03:31:36.298Z,102189.59
2023-05-08T03:34:42.229Z,102194.75
2023-05-08T03:37:46.789Z,102187.88
2023-05-08T03:40:50.697Z,102185.16
2023-05-08T03:43:55.073Z,102193.06
2023-05-08T03:46:59.454Z,102195.69
2023-05-08T03:50:04.246Z,102196.59
2023-05-08T03:53:08.832Z,102198.41
2023-05-08T03:56:12.200Z,102204.34
2023-05-08T03:59:24.275Z,102193.16
2023-05-08T04:02:42.043Z,102203.41
2023-05-08T04:05:57.897Z,102202.59
2023-05-08T04:09:10.273Z,102211.09
2023-05-08T04:12:19.264Z,102206.84
2023-05-08T04:15:26.637Z,102211.00
2023-05-08T04:18:30.669Z,102209.16
2023-05-08T04:21:38.003Z,102207.38
2023-05-08T04:24:46.638Z,102212.50
2023-05-08T04:27:56.005Z,102220.19
2023-05-08T04:31:00.514Z,102216.63
2023-05-08T04:34:04.522Z,102226.84
2023-05-08T04:37:08.504Z,102224.97
2023-05-08T04:40:14.710Z,102229.06
2023-05-08T04:43:19.042Z,102226.25
2023-05-08T04:46:22.207Z,102226.03
2023-05-08T04:49:25.380Z,102230.19
2023-05-08T04:52:28.455Z,102236.97
2023-05-08T04:55:33.283Z,102241.97
2023-05-08T04:58:36.472Z,102245.19
2023-05-08T05:01:40.124Z,102244.81
2023-05-08T05:04:44.075Z,102249.84
2023-05-08T05:07:47.458Z,102245.22
2023-05-08T05:10:52.635Z,102258.88
2023-05-08T05:13:55.762Z,102251.66
2023-05-08T05:17:02.959Z,102261.66
2023-05-08T05:20:08.911Z,102258.97
2023-05-08T05:23:12.852Z,102263.75
2023-05-08T05:26:17.670Z,102264.97
2023-05-08T05:29:21.364Z,102266.34
2023-05-08T05:32:24.855Z,102273.06
2023-05-08T05:35:28.250Z,102269.28
2023-05-08T05:38:33.188Z,102267.78
2023-05-08T05:41:38.256Z,102273.53
2023-05-08T05:44:41.744Z,102268.00
2023-05-08T05:47:47.634Z,102268.38
2023-05-08T05:50:50.921Z,102266.22
2023-05-08T05:53:54.378Z,102276.72
2023-05-08T05:57:00.030Z,102271.34
2023-05-08T06:00:03.470Z,102275.22
2023-05-08T06:03:11.178Z,102282.50
2023-05-08T06:25:15.123Z,102269.31
2023-05-08T06:35:42.916Z,102274.88
2023-05-08T06:38:51.988Z,102270.63
2023-05-08T06:41:57.362Z,102278.59
2023-05-08T06:45:17.109Z,102274.31
2023-05-08T06:48:28.983Z,102278.41
2023-05-08T06:51:32.896Z,102274.44
2023-05-08T06:54:38.423Z,102275.66
2023-05-08T06:57:44.469Z,102274.81
2023-05-08T07:00:56.386Z,102271.88
2023-05-08T07:04:01.328Z,102275.59
2023-05-08T07:07:06.798Z,102278.91
2023-05-08T07:10:16.846Z,102277.44
2023-05-08T07:13:24.469Z,102275.59
2023-05-08T07:16:32.042Z,102273.06
2023-05-08T07:19:38.904Z,102271.47
2023-05-08T07:22:50.283Z,102271.47
2023-05-08T07:25:57.091Z,102266.69
2023-05-08T07:29:00.339Z,102265.66
2023-05-08T07:32:10.377Z,102265.00
2023-05-08T07:35:20.488Z,102261.19
2023-05-08T07:38:28.612Z,102266.84
2023-05-08T07:41:37.127Z,102269.81
2023-05-08T07:44:54.833Z,102270.84
2023-05-08T07:48:09.910Z,102270.06
2023-05-08T07:51:31.768Z,102277.28
2023-05-08T07:54:41.820Z,102275.56
2023-05-08T07:57:56.472Z,102263.47
2023-05-08T08:01:03.547Z,102271.38
2023-05-08T08:04:09.867Z,102265.41
2023-05-08T08:07:18.003Z,102260.78
2023-05-08T08:10:24.463Z,102257.81
2023-05-08T08:13:32.766Z,102247.28
2023-05-08T08:16:36.222Z,102250.47
2023-05-08T08:20:00.321Z,102245.34
2023-05-08T08:23:06.529Z,102247.34
2023-05-08T08:26:14.942Z,102251.25
2023-05-08T08:29:30.701Z,102253.91
2023-05-08T08:32:39.846Z,102236.47
2023-05-08T08:35:57.150Z,102252.34
2023-05-08T08:39:00.807Z,102251.75
2023-05-08T08:42:07.966Z,102252.72
2023-05-08T08:45:12.660Z,102245.81
2023-05-08T08:48:18.920Z,102248.53
2023-05-08T08:51:29.351Z,102246.59
2023-05-08T08:54:41.367Z,102249.78
2023-05-08T08:58:22.774Z,102250.91
2023-05-08T09:01:37.284Z,102248.78
2023-05-08T09:04:58.546Z,102243.69
2023-05-08T09:08:12.861Z,102250.81
2023-05-08T09:11:19.242Z,102235.81
2023-05-08T09:14:28.790Z,102247.72
2023-05-08T09:17:52.531Z,102239.50
2023-05-08T09:21:45.309Z,102234.41
2023-05-08T09:25:01.301Z,102235.16
2023-05-08T09:28:20.100Z,102236.91
2023-05-08T09:31:53.153Z,102235.59
2023-05-08T09:35:01.005Z,102235.41
2023-05-08T09:38:43.368Z,102230.72
2023-05-08T09:42:15.231Z,102232.63
2023-05-08T09:45:35.514Z,102237.13
2023-05-08T09:48:41.086Z,102233.59
2023-05-08T09:51:54.198Z,102235.03
2023-05-08T09:55:02.196Z,102226.84
2023-05-08T09:58:16.012Z,102233.19
2023-05-08T10:01:40.656Z,102224.16
2023-05-08T10:04:52.298Z,102216.97
2023-05-08T10:08:04.056Z,102227.91
2023-05-08T10:11:20.790Z,102224.38
2023-05-08T10:14:33.259Z,102219.44
2023-05-08T10:17:52.903Z,102221.81
2023-05-08T10:21:04.355Z,102222.28
2023-05-08T10:24:26.204Z,102211.13
2023-05-08T10:27:42.450Z,102211.03
2023-05-08T10:30:57.251Z,102202.53
2023-05-08T10:34:05.150Z,102197.97
2023-05-08T10:37:36.109Z,102203.16
2023-05-08T10:41:05.987Z,102198.13
2023-05-08T10:44:19.954Z,102199.41
2023-05-08T10:47:34.196Z,102197.47
2023-05-08T10:50:56.587Z,102197.44
2023-05-08T10:54:10.013Z,102184.47
2023-05-08T10:57:30.253Z,102180.75
2023-05-08T11:01:07.264Z,102188.28
2023-05-08T11:04:23.145Z,102181.44
2023-05-08T11:08:12.159Z,102174.72
2023-05-08T11:12:09.450Z,102174.97
2023-05-08T11:15:14.942Z,102169.31
2023-05-08T11:18:19.804Z,102172.53
2023-05-08T11:22:18.412Z,102166.09
2023-05-08T11:29:32.155Z,102170.88
2023-05-08T11:36:47.838Z,102180.91
2023-05-08T11:39:52.068Z,102180.84
2023-05-08T11:43:17.945Z,102170.38
2023-05-08T11:46:44.066Z,102164.03
2023-05-08T11:49:51.441Z,102162.44
2023-05-08T11:53:30.679Z,102151.91
2023-05-08T11:56:36.989Z,102144.88
2023-05-08T12:01:06.880Z,102147.06
2023-05-08T12:05:44.255Z,102142.53
2023-05-08T12:14:22.004Z,102152.81
2023-05-08T12:17:52.386Z,102155.16
2023-05-08T12:21:30.719Z,102136.88
2023-05-08T12:25:16.425Z,102140.00
2023-05-08T12:31:51.433Z,102137.81
2023-05-08T12:35:02.073Z,102135.84
2023-05-08T12:38:25.812Z,102133.00
2023-05-08T12:41:56.192Z,102124.59
2023-05-08T12:45:03.968Z,102124.16
2023-05-08T12:48:10.511Z,102121.88
2023-05-08T12:51:44.213Z,102126.84
2023-05-08T12:54:54.131Z,102117.34
2023-05-08T12:58:14.271Z,102108.75
2023-05-08T14:05:30.064Z,102034.19
2023-05-08T14:08:35.248Z,102033.63
2023-05-08T14:11:40.614Z,102027.38
2023-05-08T14:14:43.823Z,102032.66
2023-05-08T14:17:46.952Z,102035.06
2023-05-08T14:20:57.115Z,102025.00
2023-05-08T14:24:07.226Z,102023.47
2023-05-08T14:27:10.428Z,102022.59
2023-05-08T14:30:16.666Z,102018.72
2023-05-08T14:33:20.099Z,102012.34
2023-05-08T14:36:24.787Z,102012.75
2023-05-08T14:39:29.699Z,102013.69
2023-05-08T14:42:39.301Z,102012.28
2023-05-08T14:45:47.318Z,102007.47
2023-05-08T14:48:50.876Z,102011.22
2023-05-08T14:51:57.426Z,102005.63
2023-05-08T14:55:03.707Z,102012.03
2023-05-08T14:58:09.802Z,102002.16
2023-05-08T15:01:13.159Z,102005.09
2023-05-08T15:04:19.627Z,101992.22
2023-05-08T15:07:30.444Z,102003.56
2023-05-08T15:10:33.716Z,102004.13
2023-05-08T15:13:36.845Z,102006.22
2023-05-08T15:16:45.020Z,102007.13
2023-05-08T15:19:56.972Z,102003.03
2023-05-08T15:27:04.990Z,102007.03
2023-05-08T15:30:15.535Z,102000.09
2023-05-08T15:33:24.893Z,101999.78
2023-05-08T15:36:31.460Z,102005.94
2023-05-08T15:39:39.872Z,102001.19
2023-05-08T15:42:43.008Z,101996.81
2023-05-08T15:45:50.521Z,102000.91
2023-05-08T15:49:08.455Z,101992.81
2023-05-08T15:52:11.793Z,101988.31
2023-05-08T15:55:19.260Z,101991.03
2023-05-08T15:58:23.222Z,101990.00
2023-05-08T16:01:26.405Z,101991.56
2023-05-08T16:04:32.707Z,101987.53
2023-05-08T16:07:40.102Z,101982.81
2023-05-08T16:10:48.059Z,101977.25
2023-05-08T16:13:54.289Z,101986.56
2023-05-08T16:16:57.481Z,101984.16
2023-05-08T16:20:01.687Z,101974.06
2023-05-08T16:23:07.064Z,101964.75
2023-05-08T16:26:15.481Z,101973.69
2023-05-08T16:29:18.680Z,101972.53
2023-05-08T16:32:23.696Z,101967.84
2023-05-08T16:35:26.950Z,101968.78
2023-05-08T16:38:30.014Z,101968.31
2023-05-08T16:41:39.344Z,101967.84
2023-05-08T16:44:42.687Z,101959.47
2023-05-08T16:47:46.168Z,101967.88
2023-05-08T16:50:49.258Z,101955.94
2023-05-08T16:53:52.528Z,101962.88
2023-05-08T16:56:58.140Z,101964.81
2023-05-08T17:00:07.482Z,101966.00
2023-05-08T17:03:10.596Z,101960.41
2023-05-08T17:06:13.646Z,101966.38
2023-05-08T17:09:18.379Z,101962.19
2023-05-08T17:12:22.654Z,101951.25
2023-05-08T17:15:25.664Z,101961.09
2023-05-08T17:18:28.605Z,101958.25
2023-05-08T17:21:32.137Z,101958.97
2023-05-08T17:24:37.185Z,101966.03
2023-05-08T17:27:42.024Z,101957.88
2023-05-08T17:30:46.383Z,101955.72
2023-05-08T17:33:49.524Z,101960.03
2023-05-08T17:36:54.475Z,101961.25
2023-05-08T17:39:58.486Z,101958.84
2023-05-08T17:43:05.612Z,101955.25
2023-05-08T17:46:09.226Z,101962.06
2023-05-08T17:49:13.005Z,101963.47
2023-05-08T17:52:16.209Z,101962.88
2023-05-08T17:55:20.082Z,101963.22
2023-05-08T17:58:25.118Z,101954.06
2023-05-08T18:01:29.394Z,101968.41
2023-05-08T18:04:32.585Z,101965.78
2023-05-08T18:07:40.648Z,101971.38
2023-05-08T18:10:43.821Z,101965.25
2023-05-08T18:13:48.487Z,101980.66
2023-05-08T18:16:51.504Z,101980.69
2023-05-08T18:19:54.533Z,101973.06
2023-05-08T18:22:57.597Z,101981.47
2023-05-08T18:26:00.640Z,101981.41
2023-05-08T18:29:06.244Z,101975.91
2023-05-08T18:32:11.951Z,101988.13
2023-05-08T18:35:14.974Z,101987.50
2023-05-08T18:38:18.471Z,101995.50
2023-05-08T18:41:21.503Z,102003.25
2023-05-08T18:44:25.827Z,101995.09
2023-05-08T18:47:28.857Z,102004.53
2023-05-08T18:50:31.883Z,102007.06
2023-05-08T18:53:38.452Z,102000.88
2023-05-08T18:56:41.696Z,102010.19
2023-05-08T18:59:46.056Z,102011.75
2023-05-08T19:02:49.326Z,102017.72
2023-05-08T19:05:52.568Z,102023.19
2023-05-08T19:08:55.701Z,102018.78
2023-05-08T19:11:58.788Z,102021.88
2023-05-08T19:15:03.203Z,102025.31
2023-05-08T19:18:06.924Z,102024.28
2023-05-08T19:21:10.099Z,102027.22
2023-05-08T19:24:16.173Z,102028.00
2023-05-08T19:27:19.692Z,102031.41
2023-05-08T19:30:24.075Z,102024.56
2023-05-08T19:33:28.516Z,102020.75
2023-05-08T19:36:35.506Z,102028.78
2023-05-08T19:39:39.985Z,102028.44
2023-05-08T19:42:43.453Z,102021.06
2023-05-08T19:45:47.802Z,102022.56
2023-05-08T19:48:50.854Z,102016.69
2023-05-08T19:51:54.432Z,102015.28
2023-05-08T19:54:58.493Z,102017.41
2023-05-08T19:58:05.698Z,102015.16
2023-05-08T20:01:10.244Z,102017.44
2023-05-08T20:04:13.364Z,102018.38
2023-05-08T20:07:17.213Z,102023.88
2023-05-08T20:10:20.235Z,102035.53
2023-05-08T20:13:23.259Z,102033.53
2023-05-08T20:16:27.742Z,102034.75
2023-05-08T20:19:30.750Z,102035.47
2023-05-08T20:22:35.787Z,102033.75
2023-05-08T20:25:38.797Z,102025.84
2023-05-08T20:28:43.804Z,102032.13
2023-05-08T20:31:48.128Z,102031.84
2023-05-08T20:34:52.824Z,102038.16
2023-05-08T20:37:55.899Z,102032.16
2023-05-08T20:41:01.051Z,102026.53
2023-05-08T20:44:04.591Z,102028.56
2023-05-08T20:47:08.968Z,102022.19
2023-05-08T20:50:12.304Z,102027.16
2023-05-08T20:53:15.499Z,102026.31
2023-05-08T20:56:19.206Z,102031.28
2023-05-08T20:59:23.174Z,102023.38
2023-05-08T21:02:27.575Z,102028.19
2023-05-08T21:05:31.091Z,102031.19
2023-05-08T21:08:35.167Z,102025.47
2023-05-08T21:11:38.377Z,102018.06
2023-05-08T21:14:43.822Z,102026.78
2023-05-08T21:17:48.276Z,102020.78
2023-05-08T21:20:51.304Z,102023.56
2023-05-08T21:23:54.360Z,102021.34
2023-05-08T21:26:59.449Z,102023.84
2023-05-08T21:30:04.512Z,102028.09
2023-05-08T21:33:13.654Z,102020.59
2023-05-08T21:36:16.846Z,102026.03
2023-05-08T21:39:19.869Z,102011.16
2023-05-08T21:42:22.930Z,102009.72
2023-05-08T21:45:25.980Z,102003.44
2023-05-08T21:48:30.263Z,102006.50
2023-05-08T21:51:33.328Z,102008.50
2023-05-08T21:54:36.431Z,102008.03
2023-05-08T21:57:39.569Z,102020.84
2023-05-08T22:00:42.644Z,102008.94
2023-05-08T22:03:47.160Z,102004.72
2023-05-08T22:06:50.254Z,101998.06
2023-05-08T22:09:53.260Z,101998.06
2023-05-08T22:12:56.380Z,101995.53
2023-05-08T22:15:59.670Z,101999.34
2023-05-08T22:19:03.995Z,102005.19
2023-05-08T22:22:07.342Z,101994.38
2023-05-08T22:25:10.799Z,101988.84
2023-05-08T22:28:13.953Z,101996.56
2023-05-08T22:31:17.016Z,101992.19
2023-05-08T22:34:21.373Z,101989.81
2023-05-08T22:37:24.574Z,101993.47
2023-05-08T22:40:28.148Z,101993.50
2023-05-08T22:43:32.359Z,101987.00
2023-05-08T22:46:35.924Z,101980.25
2023-05-08T22:49:41.806Z,101978.84
2023-05-08T22:52:44.888Z,101981.50
2023-05-08T22:55:47.844Z,101973.44
2023-05-08T22:58:50.812Z,101970.06
2023-05-08T23:01:53.905Z,101978.84
2023-05-08T23:04:58.411Z,101971.34
2023-05-08T23:08:02.404Z,101969.84
2023-05-08T23:11:07.329Z,101965.56
2023-05-08T23:14:10.343Z,101960.16
2023-05-08T23:17:14.046Z,101954.31
2023-05-08T23:20:18.836Z,101953.19
2023-05-08T23:23:22.061Z,101954.09
2023-05-08T23:26:25.131Z,101952.41
2023-05-08T23:29:28.788Z,101947.50
2023-05-08T23:32:31.899Z,101941.59
2023-05-08T23:35:36.214Z,101938.34
2023-05-08T23:38:39.181Z,101934.13
2023-05-08T23:41:42.120Z,101937.78
2023-05-08T23:44:45.079Z,101930.06
2023-05-08T23:47:49.336Z,101932.75
2023-05-08T23:50:54.043Z,101938.13
2023-05-08T23:53:57.135Z,101938.91
2023-05-08T23:57:00.181Z,101936.56
